Time;durP1;ratioP1;P1;durP2;ratioP2;P2;SDS_P1;SDS_P2;PMS_P1;PMS_P2;Temp;Humidity;BMP_temperature;BMP_pressure;BME280_temperature;BME280_humidity;BME280_pressure;Samples;Min_cycle;Max_cycle;Signal;HPM_P1;HPM_P2
2022/10/05 00:00:53;;;;;;;7.80;6.55;;;15.40;99.90;;;;;;5091678;28;20032;-76
2022/10/05 00:03:20;;;;;;;9.02;6.40;;;15.30;99.90;;;;;;5091276;28;20048;-76
2022/10/05 00:05:46;;;;;;;12.35;6.32;;;15.40;99.90;;;;;;5091486;28;20127;-76
2022/10/05 00:08:20;;;;;;;11.20;6.97;;;15.30;99.90;;;;;;5091859;28;20104;-76
2022/10/05 00:10:46;;;;;;;8.32;6.20;;;15.40;99.90;;;;;;5091326;28;20094;-76
2022/10/05 00:13:15;;;;;;;8.43;6.38;;;15.30;99.90;;;;;;5074591;28;20370;-77
2022/10/05 00:15:42;;;;;;;8.90;6.38;;;15.30;99.90;;;;;;5091608;28;20036;-76
2022/10/05 00:18:16;;;;;;;8.40;6.28;;;15.30;99.90;;;;;;5091631;28;20032;-76
2022/10/05 00:20:43;;;;;;;9.93;6.60;;;15.30;99.90;;;;;;5091501;28;20063;-76
2022/10/05 00:23:23;;;;;;;10.38;6.38;;;15.30;99.90;;;;;;5091036;28;20040;-76
2022/10/05 00:25:49;;;;;;;8.63;6.47;;;15.30;99.90;;;;;;5091530;28;20401;-76
2022/10/05 00:28:29;;;;;;;9.10;5.70;;;15.30;99.90;;;;;;5091269;28;20532;-76
2022/10/05 00:30:58;;;;;;;8.15;5.95;;;15.30;99.90;;;;;;5090799;28;20142;-76
2022/10/05 00:33:25;;;;;;;8.48;5.82;;;15.40;99.90;;;;;;5091085;28;20417;-76
2022/10/05 00:35:51;;;;;;;9.93;5.70;;;15.30;99.90;;;;;;5090191;28;20451;-76
2022/10/05 00:38:17;;;;;;;9.23;5.88;;;15.40;99.90;;;;;;5091165;28;20036;-76
2022/10/05 00:40:55;;;;;;;10.52;6.00;;;15.40;99.90;;;;;;5091562;28;20122;-76
2022/10/05 00:43:52;;;;;;;8.85;5.50;;;15.30;99.90;;;;;;5090830;28;20044;-76
2022/10/05 00:46:29;;;;;;;7.68;5.07;;;15.30;99.90;;;;;;5090192;28;20044;-76
2022/10/05 00:49:21;;;;;;;8.70;5.60;;;15.30;99.90;;;;;;5089380;28;20048;-76
2022/10/05 00:52:11;;;;;;;8.35;5.20;;;15.20;99.90;;;;;;5090598;28;20043;-76
2022/10/05 00:54:49;;;;;;;8.40;5.30;;;15.20;99.90;;;;;;5090789;28;20135;-76
2022/10/05 00:57:47;;;;;;;6.88;4.60;;;15.20;99.90;;;;;;5091135;28;20047;-76
2022/10/05 01:00:17;;;;;;;7.28;4.85;;;15.20;99.90;;;;;;5069945;28;20044;-76
2022/10/05 01:02:53;;;;;;;6.38;4.65;;;15.20;99.90;;;;;;5090783;28;20036;-76
2022/10/05 01:05:33;;;;;;;6.68;4.20;;;15.20;99.90;;;;;;5073764;28;20046;-76
2022/10/05 01:08:16;;;;;;;7.43;4.50;;;15.20;99.90;;;;;;5090723;28;20036;-76
2022/10/05 01:10:59;;;;;;;5.47;4.27;;;15.20;99.90;;;;;;5090485;28;20109;-76
2022/10/05 01:13:44;;;;;;;6.15;4.00;;;15.20;99.90;;;;;;5090480;28;20044;-76
2022/10/05 01:16:17;;;;;;;;;;;15.20;99.90;;;;;;5091266;28;20125;-76
2022/10/05 01:18:51;;;;;;;8.10;4.20;;;15.20;99.90;;;;;;5090409;28;19916;-76
2022/10/05 01:21:27;;;;;;;5.82;4.20;;;15.20;99.90;;;;;;5073869;28;20044;-76
2022/10/05 01:23:58;;;;;;;5.82;4.00;;;15.20;99.90;;;;;;5090633;28;20382;-76
2022/10/05 01:26:53;;;;;;;7.55;4.40;;;15.20;99.90;;;;;;5090714;28;20472;-76
2022/10/05 01:29:27;;;;;;;5.30;4.03;;;15.20;99.90;;;;;;5090348;28;20044;-76
2022/10/05 01:32:02;;;;;;;7.60;4.20;;;15.20;99.90;;;;;;5091863;28;20040;-76
2022/10/05 01:34:44;;;;;;;6.32;4.28;;;15.20;99.90;;;;;;5077724;28;20497;-76
2022/10/05 01:37:32;;;;;;;5.95;4.22;;;15.20;99.90;;;;;;5094524;28;20032;-76
2022/10/05 01:40:15;;;;;;;8.05;4.45;;;15.30;99.90;;;;;;5094526;28;20043;-76
2022/10/05 01:42:52;;;;;;;6.97;4.00;;;15.20;99.90;;;;;;5094226;28;20039;-76
2022/10/05 01:45:47;;;;;;;7.60;4.80;;;15.20;99.90;;;;;;5101005;28;20043;-76
2022/10/05 01:48:24;;;;;;;9.00;5.03;;;15.30;99.90;;;;;;5108999;28;20063;-77
2022/10/05 01:51:02;;;;;;;6.68;4.65;;;15.20;99.90;;;;;;5077251;28;20552;-77
2022/10/05 01:53:51;;;;;;;7.28;4.90;;;15.20;99.90;;;;;;5094131;28;20040;-76
2022/10/05 01:56:40;;;;;;;7.63;5.32;;;15.30;99.90;;;;;;5094234;28;20123;-76
2022/10/05 01:59:17;;;;;;;8.38;5.05;;;15.20;99.90;;;;;;5075410;28;20047;-76
2022/10/05 02:01:55;;;;;;;8.63;5.15;;;15.20;99.90;;;;;;5093728;28;20039;-76
2022/10/05 02:04:44;;;;;;;6.70;4.90;;;15.20;99.90;;;;;;5094087;28;20043;-76
2022/10/05 02:07:18;;;;;;;6.03;5.13;;;15.10;99.90;;;;;;5093911;28;20067;-76
2022/10/05 02:09:59;;;;;;;10.13;5.40;;;15.10;99.90;;;;;;5093769;28;20040;-76
2022/10/05 02:12:30;;;;;;;10.18;5.15;;;15.10;99.90;;;;;;5093496;28;20047;-76
2022/10/05 02:15:06;;;;;;;7.85;5.00;;;15.10;99.90;;;;;;5094204;28;20050;-77
2022/10/05 02:17:38;;;;;;;9.25;5.20;;;15.10;99.90;;;;;;5093857;28;20085;-76
2022/10/05 02:20:07;;;;;;;8.95;5.32;;;15.00;99.90;;;;;;5093876;28;20109;-76
2022/10/05 02:22:38;;;;;;;7.13;5.10;;;15.00;99.90;;;;;;5093385;28;20127;-77
2022/10/05 02:25:12;;;;;;;10.07;5.07;;;15.00;99.90;;;;;;5093638;28;20032;-77
2022/10/05 02:28:04;;;;;;;7.55;5.07;;;15.00;99.90;;;;;;5093589;28;20098;-77
2022/10/05 02:30:34;;;;;;;10.75;5.82;;;15.00;99.90;;;;;;5085076;28;20052;-76
2022/10/05 02:33:15;;;;;;;8.80;5.70;;;15.00;99.90;;;;;;5093224;28;20024;-76
2022/10/05 02:35:41;;;;;;;7.30;5.10;;;15.00;99.90;;;;;;5093569;28;20467;-76
2022/10/05 02:38:15;;;;;;;5.90;4.90;;;15.00;99.90;;;;;;5093461;28;20043;-76
2022/10/05 02:40:53;;;;;;;8.50;5.30;;;15.00;99.90;;;;;;5094013;28;20044;-76
2022/10/05 02:43:43;;;;;;;7.22;5.43;;;15.00;99.90;;;;;;5091258;28;20094;-76
2022/10/05 02:46:40;;;;;;;8.95;5.20;;;15.00;99.90;;;;;;5093516;28;20409;-76
2022/10/05 02:49:25;;;;;;;6.03;4.65;;;15.10;99.90;;;;;;5093411;28;20044;-76
2022/10/05 02:52:10;;;;;;;8.30;4.90;;;15.10;99.90;;;;;;5092005;28;20114;-76
2022/10/05 02:55:08;;;;;;;8.45;4.80;;;15.10;99.90;;;;;;5091903;28;20047;-76
2022/10/05 02:57:56;;;;;;;7.18;4.35;;;15.10;99.90;;;;;;5093002;28;20036;-76
2022/10/05 03:00:24;;;;;;;8.18;4.60;;;15.10;99.90;;;;;;5093131;28;20044;-77
2022/10/05 03:03:11;;;;;;;10.13;4.85;;;15.10;99.90;;;;;;5092724;28;20093;-77
2022/10/05 03:05:45;;;;;;;9.20;4.75;;;15.10;99.90;;;;;;5094714;28;20055;-76
2022/10/05 03:08:31;;;;;;;7.97;4.50;;;15.10;99.90;;;;;;5113577;28;20050;-76
2022/10/05 03:11:09;;;;;;;7.28;4.88;;;15.10;99.90;;;;;;5075761;28;20089;-76
2022/10/05 03:14:05;;;;;;;7.22;4.43;;;15.10;99.90;;;;;;5075749;28;20533;-76
2022/10/05 03:16:47;;;;;;;7.70;4.68;;;15.10;99.90;;;;;;5092632;28;20043;-76
2022/10/05 03:19:36;;;;;;;7.95;4.38;;;15.10;99.90;;;;;;5075766;28;20040;-76
2022/10/05 03:22:35;;;;;;;8.05;4.38;;;15.10;99.90;;;;;;5092708;28;20439;-76
2022/10/05 03:25:31;;;;;;;5.70;3.78;;;15.10;99.90;;;;;;5068838;28;20056;-76
2022/10/05 03:28:34;;;;;;;6.97;4.20;;;15.10;99.90;;;;;;5092442;28;20040;-76
2022/10/05 03:31:12;;;;;;;6.60;3.88;;;15.10;99.90;;;;;;5092543;28;20402;-76
2022/10/05 03:33:46;;;;;;;7.63;4.05;;;15.10;99.90;;;;;;5092533;28;20035;-77
2022/10/05 03:36:16;;;;;;;6.50;4.20;;;15.10;99.90;;;;;;5092614;28;20047;-77
2022/10/05 03:39:09;;;;;;;7.35;4.10;;;15.10;99.90;;;;;;5075603;28;20401;-76
2022/10/05 03:41:38;;;;;;;7.28;4.22;;;15.10;99.90;;;;;;5092006;28;20040;-76
2022/10/05 03:44:16;;;;;;;5.88;4.35;;;15.10;99.90;;;;;;5092038;28;20036;-76
2022/10/05 03:47:04;;;;;;;5.82;4.05;;;15.10;99.90;;;;;;5075266;28;20040;-76
2022/10/05 03:49:48;;;;;;;8.15;3.58;;;15.00;99.90;;;;;;5092034;28;20169;-76
2022/10/05 03:52:22;;;;;;;6.28;3.88;;;15.10;99.90;;;;;;5091602;28;20048;-76
2022/10/05 03:54:56;;;;;;;7.60;3.90;;;15.10;99.90;;;;;;5091509;28;20078;-76
2022/10/05 03:57:30;;;;;;;5.93;4.05;;;15.00;99.90;;;;;;5092079;28;20138;-76
2022/10/05 04:00:13;;;;;;;6.32;4.07;;;15.00;99.90;;;;;;5091750;28;20039;-76
2022/10/05 04:03:11;;;;;;;7.30;4.00;;;15.00;99.90;;;;;;5091542;28;20622;-76
2022/10/05 04:05:51;;;;;;;6.28;4.30;;;15.10;99.90;;;;;;5091906;28;20047;-76
2022/10/05 04:08:39;;;;;;;5.40;4.30;;;15.10;99.90;;;;;;5091630;28;20079;-77
2022/10/05 04:11:37;;;;;;;9.57;4.60;;;15.00;99.90;;;;;;5091394;28;20044;-76
2022/10/05 04:14:15;;;;;;;6.82;4.70;;;15.00;99.90;;;;;;5090853;28;20054;-76
2022/10/05 04:16:45;;;;;;;7.85;4.90;;;15.00;99.90;;;;;;5091877;28;20039;-77
2022/10/05 04:19:33;;;;;;;8.15;4.97;;;15.00;99.90;;;;;;5091677;28;20146;-76
2022/10/05 04:22:40;;;;;;;6.72;4.90;;;15.00;99.90;;;;;;5091133;28;20054;-77
2022/10/05 04:25:28;;;;;;;6.70;5.18;;;15.00;99.90;;;;;;5078100;28;20185;-76
2022/10/05 04:28:15;;;;;;;8.35;4.88;;;15.00;99.90;;;;;;5091397;28;20036;-77
2022/10/05 04:30:46;;;;;;;6.55;4.93;;;15.00;99.90;;;;;;5091051;28;20036;-77
2022/10/05 04:33:12;;;;;;;7.82;4.70;;;15.00;99.90;;;;;;5091050;28;20036;-77
2022/10/05 04:35:51;;;;;;;10.20;4.78;;;14.90;99.90;;;;;;5091200;28;20044;-77
2022/10/05 04:38:35;;;;;;;8.38;5.00;;;15.00;99.90;;;;;;5091135;28;20043;-77
2022/10/05 04:41:18;;;;;;;8.38;4.93;;;15.00;99.90;;;;;;5091683;28;20409;-76
2022/10/05 04:44:11;;;;;;;6.53;5.13;;;15.00;99.90;;;;;;5094445;28;20040;-77
2022/10/05 04:46:43;;;;;;;7.68;4.95;;;14.90;99.90;;;;;;5091340;28;20083;-76
2022/10/05 04:49:32;;;;;;;9.93;4.95;;;14.90;99.90;;;;;;5073860;28;20040;-77
2022/10/05 04:52:44;;;;;;;8.65;5.38;;;14.90;99.90;;;;;;5081847;28;20032;-76
2022/10/05 04:55:36;;;;;;;7.15;5.15;;;14.90;99.90;;;;;;5108426;28;20062;-77
2022/10/05 04:58:28;;;;;;;9.23;6.28;;;14.90;99.90;;;;;;5094637;28;20031;-76
2022/10/05 05:01:31;;;;;;;8.77;6.00;;;14.80;99.90;;;;;;5090848;28;20048;-77
2022/10/05 05:04:34;;;;;;;8.82;5.78;;;14.90;99.90;;;;;;5090587;28;20036;-76
2022/10/05 05:07:37;;;;;;;12.07;6.65;;;14.80;99.90;;;;;;5089875;28;20051;-76
2022/10/05 05:10:22;;;;;;;9.32;5.90;;;14.80;99.90;;;;;;5074315;28;20052;-77
2022/10/05 05:13:04;;;;;;;10.60;7.22;;;14.80;99.90;;;;;;5090228;28;20162;-76
2022/10/05 05:15:57;;;;;;;12.38;7.10;;;14.80;99.90;;;;;;5090127;28;20695;-77
2022/10/05 05:19:00;;;;;;;14.27;7.65;;;14.80;99.90;;;;;;5089419;28;20107;-76
2022/10/05 05:21:38;;;;;;;12.80;7.32;;;14.80;99.90;;;;;;5090443;28;20032;-76
2022/10/05 05:24:12;;;;;;;10.13;7.32;;;14.80;99.90;;;;;;5090514;28;20540;-77
2022/10/05 05:27:22;;;;;;;10.18;6.90;;;14.80;99.90;;;;;;5090407;28;20031;-76
2022/10/05 05:29:57;;;;;;;10.07;7.40;;;14.80;99.90;;;;;;5090331;28;20044;-76
2022/10/05 05:32:44;;;;;;;10.80;6.78;;;14.80;99.90;;;;;;5090483;28;20044;-76
2022/10/05 05:35:19;;;;;;;10.27;6.93;;;14.80;99.90;;;;;;5089608;28;20044;-76
2022/10/05 05:37:50;;;;;;;10.43;6.70;;;14.80;99.90;;;;;;5089092;28;20036;-76
2022/10/05 05:40:24;;;;;;;9.93;6.22;;;14.80;99.90;;;;;;5090042;28;20047;-77
2022/10/05 05:42:50;;;;;;;10.93;6.60;;;14.80;99.90;;;;;;5090171;28;20040;-76
2022/10/05 05:45:41;;;;;;;9.93;6.28;;;14.80;99.90;;;;;;5090654;28;20036;-76
2022/10/05 05:48:22;;;;;;;10.32;6.15;;;14.80;99.90;;;;;;5090153;28;20047;-77
2022/10/05 05:50:55;;;;;;;9.30;6.65;;;14.80;99.90;;;;;;5090010;28;20031;-76
2022/10/05 05:53:31;;;;;;;9.52;5.82;;;14.70;99.90;;;;;;5090478;28;20256;-76
2022/10/05 05:56:03;;;;;;;9.82;6.20;;;14.70;99.90;;;;;;5090064;28;20036;-76
2022/10/05 05:58:41;;;;;;;7.18;5.68;;;14.80;99.90;;;;;;5090174;28;20051;-76
2022/10/05 06:01:17;;;;;;;8.02;6.20;;;14.80;99.90;;;;;;5090087;28;20397;-76
2022/10/05 06:03:48;;;;;;;9.60;6.50;;;14.80;99.90;;;;;;5088984;28;20040;-76
2022/10/05 06:06:17;;;;;;;9.90;6.13;;;14.80;99.90;;;;;;5089749;28;20416;-76
2022/10/05 06:08:50;;;;;;;8.85;6.30;;;14.80;99.90;;;;;;5089979;28;20127;-76
2022/10/05 06:11:30;;;;;;;10.13;5.95;;;14.80;99.90;;;;;;5089117;28;20036;-77
2022/10/05 06:14:03;;;;;;;7.97;5.97;;;14.80;99.90;;;;;;5090275;28;20539;-76
2022/10/05 06:16:47;;;;;;;9.93;5.97;;;14.80;99.90;;;;;;5090257;28;20044;-76
2022/10/05 06:19:20;;;;;;;9.40;6.22;;;14.80;99.90;;;;;;5076344;28;20047;-76
2022/10/05 06:22:04;;;;;;;11.35;6.32;;;14.80;99.90;;;;;;5092981;28;20093;-76
2022/10/05 06:24:54;;;;;;;7.75;5.68;;;14.80;99.90;;;;;;5092381;28;20119;-76
2022/10/05 06:27:24;;;;;;;7.68;5.55;;;14.80;99.90;;;;;;5093598;28;20133;-77
2022/10/05 06:30:13;;;;;;;9.57;5.63;;;14.80;99.90;;;;;;5093612;28;20051;-77
2022/10/05 06:33:20;;;;;;;6.97;5.70;;;14.80;99.90;;;;;;5093563;28;20032;-76
2022/10/05 06:36:16;;;;;;;9.98;5.80;;;14.80;99.90;;;;;;5092220;28;20040;-77
2022/10/05 06:38:41;;;;;;;8.23;5.63;;;14.80;99.90;;;;;;5093814;28;20468;-76
2022/10/05 06:41:24;;;;;;;9.15;6.20;;;14.90;99.90;;;;;;5093184;28;20119;-77
2022/10/05 06:43:59;;;;;;;7.75;5.65;;;14.90;99.90;;;;;;5093974;28;20454;-76
2022/10/05 06:46:38;;;;;;;12.20;6.07;;;14.90;99.90;;;;;;5076287;28;20051;-77
2022/10/05 06:49:12;;;;;;;10.35;6.25;;;14.90;99.90;;;;;;5093490;28;20044;-76
2022/10/05 06:51:49;;;;;;;7.75;5.72;;;14.90;99.90;;;;;;5092786;28;20036;-76
2022/10/05 06:54:40;;;;;;;8.10;5.53;;;14.90;99.90;;;;;;5093370;28;20401;-76
2022/10/05 06:57:43;;;;;;;7.32;5.35;;;14.90;99.90;;;;;;5076279;28;20036;-77
2022/10/05 07:00:19;;;;;;;6.95;5.05;;;15.00;99.90;;;;;;5092934;28;20043;-76
2022/10/05 07:03:02;;;;;;;9.32;5.40;;;14.90;99.90;;;;;;5092607;28;20044;-77
2022/10/05 07:05:49;;;;;;;6.75;5.25;;;14.90;99.90;;;;;;5092870;28;20097;-77
2022/10/05 07:09:22;;;;;;;7.75;5.55;;;14.90;99.90;;;;;;5092362;28;20105;-77
2022/10/05 07:12:11;;;;;;;8.18;5.68;;;14.90;99.90;;;;;;5001939;28;20529;-76
2022/10/05 07:15:02;;;;;;;8.20;5.47;;;14.90;99.90;;;;;;5092223;28;20036;-77
2022/10/05 07:18:08;;;;;;;10.32;5.75;;;14.90;99.90;;;;;;5092368;28;20051;-76
2022/10/05 07:20:45;;;;;;;6.97;5.15;;;14.90;99.90;;;;;;5091517;28;20052;-76
2022/10/05 07:23:10;;;;;;;9.35;5.15;;;15.00;99.90;;;;;;5092291;28;20544;-77
2022/10/05 07:26:01;;;;;;;8.82;4.80;;;15.00;99.90;;;;;;5092630;28;20074;-76
2022/10/05 07:28:46;;;;;;;6.25;4.57;;;15.00;99.90;;;;;;5092551;28;20036;-77
2022/10/05 07:31:22;;;;;;;9.40;4.80;;;15.10;99.90;;;;;;5075182;28;20036;-76
2022/10/05 07:34:05;;;;;;;6.20;4.40;;;15.10;99.90;;;;;;5092527;28;20036;-77
2022/10/05 07:39:43;;;;;;;6.85;4.47;;;15.10;99.90;;;;;;5092183;28;20056;-77
2022/10/05 07:42:24;;;;;;;6.35;4.07;;;15.10;99.90;;;;;;5075479;28;20472;-77
2022/10/05 07:44:59;;;;;;;5.70;4.20;;;15.20;99.90;;;;;;5092069;28;20513;-77
2022/10/05 07:47:54;;;;;;;7.78;4.35;;;15.20;99.90;;;;;;5092045;28;20067;-77
2022/10/05 07:50:33;;;;;;;7.53;4.18;;;15.30;99.90;;;;;;5091486;28;20040;-76
2022/10/05 07:53:12;;;;;;;5.13;3.70;;;15.30;99.90;;;;;;5091066;28;20058;-77
2022/10/05 07:55:43;;;;;;;5.32;4.07;;;15.30;99.90;;;;;;5091700;28;20118;-77
2022/10/05 07:58:22;;;;;;;5.38;3.70;;;15.30;99.90;;;;;;5091864;28;20119;-77
2022/10/05 08:01:10;;;;;;;4.97;3.53;;;15.30;99.90;;;;;;5102367;28;20047;-77
2022/10/05 08:03:57;;;;;;;4.03;3.30;;;15.40;99.90;;;;;;5108090;28;20051;-76
2022/10/05 08:06:25;;;;;;;5.47;3.45;;;15.40;99.90;;;;;;5090644;28;20036;-76
2022/10/05 08:09:32;;;;;;;3.65;2.88;;;15.40;99.90;;;;;;5089697;28;20528;-76
2022/10/05 08:12:16;;;;;;;4.53;2.60;;;15.40;99.90;;;;;;5074515;28;20040;-77
2022/10/05 08:15:08;;;;;;;4.15;2.63;;;15.40;99.90;;;;;;5091459;28;20040;-76
2022/10/05 08:17:40;;;;;;;3.05;2.08;;;15.40;99.90;;;;;;5091534;28;20039;-76
2022/10/05 08:20:31;;;;;;;4.15;2.30;;;15.40;99.90;;;;;;5091521;28;20047;-77
2022/10/05 08:23:22;;;;;;;3.28;2.22;;;15.50;99.90;;;;;;5091449;28;20090;-76
2022/10/05 08:26:32;;;;;;;3.17;2.15;;;15.50;99.90;;;;;;5074485;28;20529;-76
2022/10/05 08:29:22;;;;;;;3.25;2.10;;;15.60;99.90;;;;;;5055970;28;20048;-76
2022/10/05 08:31:51;;;;;;;3.25;1.85;;;15.60;99.90;;;;;;5091025;28;20032;-76
2022/10/05 08:34:33;;;;;;;3.88;1.90;;;15.70;99.90;;;;;;5090888;28;20035;-77
2022/10/05 08:37:16;;;;;;;2.88;1.90;;;15.80;99.90;;;;;;5090218;28;20040;-77
2022/10/05 08:40:13;;;;;;;2.38;1.80;;;15.90;99.90;;;;;;5090888;28;20032;-76
2022/10/05 08:43:19;;;;;;;3.60;2.15;;;15.90;99.90;;;;;;5090762;28;20050;-76
2022/10/05 08:46:25;;;;;;;4.07;2.22;;;16.10;99.90;;;;;;5090661;28;20527;-76
2022/10/05 08:49:12;;;;;;;3.33;2.10;;;16.10;99.90;;;;;;5090266;28;20082;-77
2022/10/05 08:51:52;;;;;;;2.97;2.10;;;16.20;99.90;;;;;;5089410;28;20036;-76
2022/10/05 08:54:51;;;;;;;6.20;2.53;;;16.30;99.90;;;;;;5090295;28;20032;-77
2022/10/05 08:57:32;;;;;;;3.33;2.35;;;16.30;99.90;;;;;;5090736;28;20032;-76
2022/10/05 09:00:21;;;;;;;3.85;2.10;;;16.30;99.90;;;;;;5090753;28;20036;-77
2022/10/05 09:03:11;;;;;;;5.93;2.35;;;16.40;99.90;;;;;;5091803;28;20036;-76
2022/10/05 09:06:05;;;;;;;5.40;3.13;;;16.50;99.90;;;;;;5091036;28;20097;-76
2022/10/05 09:08:38;;;;;;;3.80;2.50;;;16.50;99.90;;;;;;5090734;28;20036;-78
2022/10/05 09:11:30;;;;;;;5.72;3.28;;;16.60;99.90;;;;;;5090425;28;20470;-77
2022/10/05 09:14:11;;;;;;;5.78;2.55;;;16.60;99.90;;;;;;5090432;28;20033;-77
2022/10/05 09:17:19;;;;;;;5.45;3.00;;;16.60;99.90;;;;;;5089511;28;20043;-79
2022/10/05 09:19:48;;;;;;;4.45;3.17;;;16.60;99.90;;;;;;5044846;28;20048;-77
2022/10/05 09:22:15;;;;;;;7.70;3.10;;;16.60;99.90;;;;;;5090199;28;20048;-77
2022/10/05 09:24:52;;;;;;;5.30;3.28;;;16.70;99.90;;;;;;5073661;28;20047;-77
2022/10/05 09:27:34;;;;;;;3.97;3.15;;;16.70;99.90;;;;;;5090788;28;20035;-77
2022/10/05 09:30:12;;;;;;;11.63;3.63;;;16.90;99.90;;;;;;5090402;28;20048;-78
2022/10/05 09:33:06;;;;;;;4.50;2.90;;;16.90;99.90;;;;;;5090090;28;20036;-78
2022/10/05 09:35:52;;;;;;;5.43;3.23;;;16.90;99.90;;;;;;5090471;28;20036;-77
2022/10/05 09:38:43;;;;;;;6.05;3.30;;;16.90;99.90;;;;;;5090708;28;20432;-77
2022/10/05 09:41:41;;;;;;;4.82;2.78;;;17.00;99.90;;;;;;5090062;28;20040;-77
2022/10/05 09:44:21;;;;;;;5.38;3.00;;;17.10;99.90;;;;;;5090219;28;20036;-77
2022/10/05 09:47:20;;;;;;;5.35;3.33;;;17.10;99.90;;;;;;5090603;28;20417;-77
2022/10/05 09:50:13;;;;;;;7.13;2.97;;;17.10;99.90;;;;;;5089542;28;20036;-77
2022/10/05 09:52:51;;;;;;;4.63;3.00;;;17.20;99.90;;;;;;5091497;28;20039;-77
2022/10/05 09:55:51;;;;;;;4.03;2.65;;;17.30;99.90;;;;;;5094506;28;20066;-77
2022/10/05 09:59:02;;;;;;;5.35;3.30;;;17.30;99.90;;;;;;5094104;28;20078;-78
2022/10/05 10:01:54;;;;;;;4.55;2.80;;;17.30;99.90;;;;;;5093872;28;20043;-77
2022/10/05 10:04:47;;;;;;;3.58;2.65;;;17.40;99.90;;;;;;5077283;28;20036;-78
2022/10/05 10:07:24;;;;;;;4.90;2.78;;;17.40;99.90;;;;;;5094027;28;20043;-78
2022/10/05 10:10:05;;;;;;;4.90;2.60;;;17.60;99.90;;;;;;5093659;28;20044;-79
2022/10/05 10:12:51;;;;;;;6.03;3.10;;;17.50;99.90;;;;;;5092991;28;20086;-78
2022/10/05 10:15:43;;;;;;;5.18;3.10;;;17.40;99.90;;;;;;5094122;28;20040;-77
2022/10/05 10:18:26;;;;;;;4.68;3.08;;;17.30;99.90;;;;;;5094051;28;20040;-78
2022/10/05 10:21:32;;;;;;;6.10;2.80;;;17.20;99.90;;;;;;5093825;28;20109;-77
2022/10/05 10:24:35;;;;;;;4.25;2.70;;;17.10;99.90;;;;;;5093744;28;20044;-77
2022/10/05 10:27:39;;;;;;;4.95;2.72;;;17.10;99.90;;;;;;5093827;28;20386;-78
2022/10/05 10:30:40;;;;;;;4.70;2.75;;;17.00;99.90;;;;;;5082714;28;20048;-78
2022/10/05 10:33:34;;;;;;;4.38;3.25;;;16.90;99.90;;;;;;5093501;28;20181;-77
2022/10/05 10:36:37;;;;;;;5.18;3.10;;;16.90;99.90;;;;;;5093658;28;20078;-77
2022/10/05 10:39:40;;;;;;;3.85;2.90;;;16.80;99.90;;;;;;5093444;28;20036;-78
2022/10/05 10:42:30;;;;;;;3.90;2.88;;;16.80;99.90;;;;;;5092473;28;20047;-78
2022/10/05 10:45:18;;;;;;;7.22;2.88;;;16.80;99.90;;;;;;5093393;28;20040;-77
2022/10/05 10:47:55;;;;;;;6.30;2.90;;;16.80;99.90;;;;;;5091894;28;20040;-77
2022/10/05 10:50:31;;;;;;;3.60;2.70;;;16.80;99.90;;;;;;5092385;28;20036;-77
2022/10/05 10:53:25;;;;;;;3.83;2.72;;;16.90;99.90;;;;;;5093053;28;20044;-77
2022/10/05 10:56:48;;;;;;;5.88;3.00;;;16.90;99.90;;;;;;5093021;28;20043;-78
2022/10/05 10:59:40;;;;;;;6.07;2.95;;;16.80;99.90;;;;;;5052279;28;20044;-78
2022/10/05 11:02:41;;;;;;;4.80;2.92;;;16.80;99.90;;;;;;5054913;28;20040;-77
2022/10/05 11:05:41;;;;;;;4.45;3.00;;;16.80;99.90;;;;;;5086952;28;20084;-77
2022/10/05 11:08:45;;;;;;;3.83;2.97;;;16.80;99.90;;;;;;5092907;28;20097;-79
2022/10/05 11:11:56;;;;;;;3.63;3.00;;;16.80;99.90;;;;;;5092672;28;20501;-79
2022/10/05 11:14:54;;;;;;;6.45;3.30;;;16.80;99.90;;;;;;5092752;28;20028;-79
2022/10/05 11:17:51;;;;;;;6.00;3.67;;;16.80;99.90;;;;;;5092712;28;20089;-78
2022/10/05 11:20:40;;;;;;;5.38;3.50;;;16.90;99.90;;;;;;5076169;28;20054;-78
2022/10/05 11:23:36;;;;;;;3.95;3.40;;;16.80;99.90;;;;;;5090123;28;20404;-78
2022/10/05 11:26:31;;;;;;;5.47;3.63;;;16.80;99.90;;;;;;5091353;28;20101;-77
2022/10/05 11:29:18;;;;;;;5.10;3.17;;;16.80;99.90;;;;;;5092888;28;20036;-78
2022/10/05 11:32:05;;;;;;;6.32;3.10;;;16.80;99.90;;;;;;5092271;28;20172;-78
2022/10/05 11:35:03;;;;;;;4.72;2.92;;;16.80;99.90;;;;;;5092419;28;20063;-79
2022/10/05 11:37:39;;;;;;;4.80;3.00;;;16.70;99.90;;;;;;5092371;28;20063;-79
2022/10/05 11:40:43;;;;;;;5.95;2.92;;;16.70;99.90;;;;;;5092528;28;20055;-78
2022/10/05 11:43:21;;;;;;;5.25;2.75;;;16.70;99.90;;;;;;5091908;28;20036;-78
2022/10/05 11:45:46;;;;;;;8.25;3.35;;;16.70;99.90;;;;;;5092118;28;20036;-78
2022/10/05 11:48:50;;;;;;;5.25;3.10;;;16.80;99.90;;;;;;5092186;28;20036;-78
2022/10/05 11:51:33;;;;;;;4.85;3.35;;;16.70;99.90;;;;;;5091528;28;20044;-77
2022/10/05 11:54:24;;;;;;;4.90;3.30;;;16.70;99.90;;;;;;5092159;28;20046;-77
2022/10/05 11:57:06;;;;;;;6.20;3.28;;;16.70;99.90;;;;;;5092074;28;20090;-77
2022/10/05 11:59:49;;;;;;;4.75;3.08;;;16.70;99.90;;;;;;5092116;28;20079;-78
2022/10/05 12:02:49;;;;;;;5.03;3.17;;;16.70;99.90;;;;;;5091800;28;20093;-77
2022/10/05 12:05:28;;;;;;;4.28;2.72;;;16.70;99.90;;;;;;5093321;28;20062;-77
2022/10/05 12:08:11;;;;;;;3.95;2.97;;;16.70;99.90;;;;;;5091827;28;20067;-77
2022/10/05 12:11:24;;;;;;;11.27;2.95;;;16.70;99.90;;;;;;5091600;28;20040;-78
2022/10/05 12:14:00;;;;;;;4.68;3.10;;;16.80;99.90;;;;;;5091518;28;20093;-77
2022/10/05 12:16:38;;;;;;;3.45;3.05;;;16.80;99.90;;;;;;5090295;28;20186;-78
2022/10/05 12:19:32;;;;;;;5.50;2.75;;;16.90;99.90;;;;;;5090771;28;20036;-78
2022/10/05 12:22:19;;;;;;;3.28;2.60;;;16.90;99.90;;;;;;5091279;28;20115;-78
2022/10/05 12:25:01;;;;;;;4.40;2.80;;;16.90;99.90;;;;;;5091587;28;20040;-78
2022/10/05 12:27:49;;;;;;;5.72;2.90;;;16.90;99.90;;;;;;5090893;28;20040;-78
2022/10/05 12:31:04;;;;;;;4.88;3.20;;;16.90;99.90;;;;;;5090238;28;20038;-78
2022/10/05 12:33:51;;;;;;;5.05;3.10;;;16.90;99.90;;;;;;5071463;28;20055;-79
2022/10/05 12:36:22;;;;;;;5.13;2.90;;;16.90;99.90;;;;;;5091334;28;20040;-78
2022/10/05 12:39:12;;;;;;;4.53;3.10;;;16.90;99.90;;;;;;5091171;28;20119;-78
2022/10/05 12:41:49;;;;;;;4.22;3.05;;;16.90;99.90;;;;;;5091160;28;20043;-78
2022/10/05 12:44:34;;;;;;;5.30;3.30;;;16.90;99.90;;;;;;5091089;28;20032;-79
2022/10/05 12:47:17;;;;;;;7.10;3.45;;;16.90;99.90;;;;;;5060324;28;20051;-78
2022/10/05 12:49:45;;;;;;;5.03;3.30;;;16.90;99.90;;;;;;5089747;28;20553;-77
2022/10/05 12:52:44;;;;;;;5.18;2.80;;;16.90;99.90;;;;;;5090808;28;20508;-78
2022/10/05 12:55:24;;;;;;;4.32;2.80;;;16.90;99.90;;;;;;5091318;28;20051;-78
2022/10/05 12:58:08;;;;;;;4.93;3.08;;;16.90;99.90;;;;;;5090928;28;20032;-78
2022/10/05 13:00:42;;;;;;;4.80;3.00;;;16.90;99.90;;;;;;5090578;28;20225;-79
2022/10/05 13:03:23;;;;;;;3.38;2.80;;;16.80;99.90;;;;;;5090764;28;20043;-77
2022/10/05 13:06:13;;;;;;;5.00;3.15;;;16.80;99.90;;;;;;5090696;28;20043;-78
2022/10/05 13:08:54;;;;;;;4.95;3.10;;;16.80;99.90;;;;;;5090604;28;20035;-78
2022/10/05 13:11:31;;;;;;;5.20;3.15;;;16.80;99.90;;;;;;5090441;28;20036;-78
2022/10/05 13:14:21;;;;;;;3.88;3.08;;;16.80;99.90;;;;;;5090814;28;20390;-78
2022/10/05 13:17:11;;;;;;;6.80;3.47;;;16.90;99.90;;;;;;5090601;28;20040;-77
2022/10/05 13:19:45;;;;;;;5.00;3.15;;;16.90;99.90;;;;;;5090510;28;20040;-77
2022/10/05 13:22:25;;;;;;;5.20;3.25;;;16.90;99.90;;;;;;5090447;28;20532;-78
2022/10/05 13:25:06;;;;;;;5.55;3.53;;;17.00;99.90;;;;;;5073593;28;20055;-78
2022/10/05 13:27:42;;;;;;;4.90;3.53;;;17.00;99.90;;;;;;5090021;28;20447;-78
2022/10/05 13:30:20;;;;;;;5.13;3.85;;;17.10;99.90;;;;;;5073403;28;20044;-78
2022/10/05 13:33:03;;;;;;;4.97;3.72;;;17.10;99.90;;;;;;5090177;28;20043;-78
2022/10/05 13:35:43;;;;;;;6.43;3.70;;;17.10;99.90;;;;;;5090450;28;20048;-78
2022/10/05 13:38:11;;;;;;;4.88;3.35;;;17.10;99.90;;;;;;5089838;28;20409;-78
2022/10/05 13:40:57;;;;;;;5.30;3.63;;;17.10;99.90;;;;;;5073018;28;20045;-78
2022/10/05 13:43:55;;;;;;;4.53;3.15;;;17.10;99.90;;;;;;5090432;28;20497;-78
2022/10/05 13:46:51;;;;;;;5.68;3.40;;;17.20;99.90;;;;;;5090462;28;20040;-78
2022/10/05 13:49:42;;;;;;;5.40;3.10;;;17.30;99.90;;;;;;5090294;28;20075;-78
2022/10/05 13:52:22;;;;;;;5.32;2.97;;;17.40;99.90;;;;;;5106147;28;20404;-77
2022/10/05 13:55:07;;;;;;;4.50;2.92;;;17.50;99.90;;;;;;5110530;28;20122;-77
2022/10/05 13:57:55;;;;;;;4.47;3.25;;;17.60;99.90;;;;;;5110121;28;20123;-78
2022/10/05 14:00:22;;;;;;;4.05;2.65;;;17.70;99.90;;;;;;5109772;28;20119;-78
2022/10/05 14:02:51;;;;;;;6.82;3.25;;;17.70;99.90;;;;;;5099423;28;20055;-78
2022/10/05 14:05:21;;;;;;;3.95;3.20;;;17.70;99.90;;;;;;5090140;28;20036;-78
2022/10/05 14:07:48;;;;;;;5.47;2.78;;;17.80;99.90;;;;;;5090170;28;20093;-78
2022/10/05 14:10:41;;;;;;;6.05;2.95;;;17.80;99.90;;;;;;5089980;28;20044;-78
2022/10/05 14:13:25;;;;;;;6.28;3.10;;;17.80;99.90;;;;;;5073007;28;20035;-78
2022/10/05 14:16:04;;;;;;;4.20;3.00;;;17.80;99.90;;;;;;5090232;28;20093;-77